createdAt,value
2022-09-11T00:00:44.581Z,15.00
2022-09-11T00:03:11.604Z,15.00
2022-09-11T00:05:42.013Z,15.00
2022-09-11T00:08:11.590Z,14.90
2022-09-11T00:10:43.246Z,14.90
2022-09-11T00:13:12.020Z,14.90
2022-09-11T00:15:44.572Z,14.90
2022-09-11T00:18:15.038Z,14.90
2022-09-11T00:20:51.788Z,14.80
2022-09-11T00:23:20.393Z,14.80
2022-09-11T00:25:48.611Z,14.80
2022-09-11T00:28:19.778Z,14.80
2022-09-11T00:30:48.519Z,14.70
2022-09-11T00:33:16.045Z,14.70
2022-09-11T00:35:42.965Z,14.60
2022-09-11T00:38:13.114Z,14.60
2022-09-11T00:40:46.902Z,14.60
2022-09-11T00:43:16.621Z,14.60
2022-09-11T00:45:52.928Z,14.60
2022-09-11T00:48:24.803Z,14.50
2022-09-11T00:50:54.281Z,14.50
2022-09-11T00:53:25.132Z,14.40
2022-09-11T00:55:57.651Z,14.40
2022-09-11T01:02:15.092Z,14.40
2022-09-11T01:04:42.094Z,14.40
2022-09-11T01:07:11.949Z,14.40
2022-09-11T01:09:44.492Z,14.30
2022-09-11T01:12:24.915Z,14.30
2022-09-11T01:14:55.970Z,14.20
2022-09-11T01:17:36.333Z,14.20
2022-09-11T01:20:26.702Z,14.20
2022-09-11T01:23:05.443Z,14.20
2022-09-11T01:25:38.588Z,14.10
2022-09-11T01:28:16.660Z,14.20
2022-09-11T01:30:53.723Z,14.10
2022-09-11T01:33:29.288Z,14.10
2022-09-11T01:35:59.644Z,14.10
2022-09-11T01:38:37.732Z,14.10
2022-09-11T01:41:10.740Z,14.00
2022-09-11T01:43:56.683Z,14.00
2022-09-11T01:46:27.119Z,14.00
2022-09-11T01:49:07.435Z,14.00
2022-09-11T01:51:36.303Z,14.00
2022-09-11T01:54:07.271Z,14.00
2022-09-11T01:56:40.884Z,14.00
2022-09-11T01:59:27.877Z,14.00
2022-09-11T02:01:58.702Z,14.00
2022-09-11T02:04:30.055Z,14.00
2022-09-11T02:06:56.999Z,14.00
2022-09-11T02:09:31.856Z,14.00
2022-09-11T02:12:02.584Z,14.00
2022-09-11T02:14:34.830Z,14.00
2022-09-11T02:17:20.303Z,14.00
2022-09-11T02:19:49.137Z,14.00
2022-09-11T02:22:15.870Z,14.00
2022-09-11T02:24:42.852Z,14.00
2022-09-11T02:27:12.081Z,14.00
2022-09-11T02:30:04.389Z,14.00
2022-09-11T02:32:36.552Z,14.00
2022-09-11T02:35:03.607Z,14.00
2022-09-11T02:37:39.521Z,14.00
2022-09-11T02:40:27.092Z,14.00
2022-09-11T02:43:14.367Z,14.00
2022-09-11T02:46:01.667Z,14.00
2022-09-11T02:48:36.301Z,14.00
2022-09-11T02:51:03.627Z,14.00
2022-09-11T02:53:56.652Z,13.90
2022-09-11T02:56:31.895Z,13.90
2022-09-11T02:59:01.640Z,13.90
2022-09-11T03:01:30.135Z,13.90
2022-09-11T03:03:59.361Z,13.90
2022-09-11T03:06:28.125Z,13.90
2022-09-11T03:08:55.689Z,13.90
2022-09-11T03:11:22.609Z,13.80
2022-09-11T03:13:50.283Z,13.80
2022-09-11T03:16:17.746Z,13.80
2022-09-11T03:18:45.113Z,13.80
2022-09-11T03:21:11.964Z,13.80
2022-09-11T03:23:39.389Z,13.80
2022-09-11T03:26:06.270Z,13.90
2022-09-11T03:28:40.048Z,14.00
2022-09-11T03:31:09.849Z,14.10
2022-09-11T03:33:37.478Z,14.20
2022-09-11T03:36:04.804Z,14.30
2022-09-11T03:38:53.206Z,14.40
2022-09-11T03:41:20.201Z,14.50
2022-09-11T03:43:47.043Z,14.60
2022-09-11T03:46:14.017Z,14.70
2022-09-11T03:48:47.559Z,14.80
2022-09-11T03:51:14.907Z,14.80
2022-09-11T03:53:42.248Z,14.90
2022-09-11T03:56:10.973Z,15.00
2022-09-11T03:58:43.716Z,15.00
2022-09-11T04:01:12.208Z,15.10
2022-09-11T04:03:40.644Z,15.10
2022-09-11T04:06:10.072Z,15.10
2022-09-11T04:08:39.681Z,15.20
2022-09-11T04:11:07.590Z,15.20
2022-09-11T04:13:37.129Z,15.30
2022-09-11T04:16:08.523Z,15.30
2022-09-11T04:18:55.622Z,15.40
2022-09-11T04:21:24.398Z,15.40
2022-09-11T04:23:56.402Z,15.50
2022-09-11T04:26:25.383Z,15.50
2022-09-11T04:28:58.767Z,15.60
2022-09-11T04:31:27.614Z,15.60
2022-09-11T04:33:57.773Z,15.70
2022-09-11T04:36:27.222Z,15.70
2022-09-11T04:38:57.906Z,15.70
2022-09-11T04:41:24.838Z,15.70
2022-09-11T04:44:01.137Z,15.70
2022-09-11T04:46:31.186Z,15.80
2022-09-11T04:49:00.246Z,15.80
2022-09-11T04:51:30.112Z,15.90
2022-09-11T04:53:58.446Z,15.90
2022-09-11T04:56:31.359Z,16.00
2022-09-11T04:58:59.987Z,16.00
2022-09-11T05:01:29.650Z,16.00
2022-09-11T05:04:00.416Z,16.00
2022-09-11T05:06:30.234Z,16.10
2022-09-11T05:09:04.890Z,16.10
2022-09-11T05:11:34.735Z,16.10
2022-09-11T05:14:01.720Z,16.10
2022-09-11T05:16:31.185Z,16.10
2022-09-11T05:19:00.523Z,16.10
2022-09-11T05:21:27.868Z,16.10
2022-09-11T05:23:55.581Z,16.10
2022-09-11T05:26:23.631Z,16.10
2022-09-11T05:28:58.876Z,16.10
2022-09-11T05:31:26.887Z,16.10
2022-09-11T05:33:55.496Z,16.10
2022-09-11T05:36:23.178Z,16.10
2022-09-11T05:39:10.636Z,16.10
2022-09-11T05:41:39.127Z,16.10
2022-09-11T05:44:05.855Z,16.10
2022-09-11T05:46:34.086Z,16.10
2022-09-11T05:49:22.998Z,16.10
2022-09-11T05:51:49.868Z,16.10
2022-09-11T05:54:16.668Z,16.10
2022-09-11T05:56:44.756Z,16.10
2022-09-11T05:59:45.292Z,16.10
2022-09-11T06:02:12.680Z,16.20
2022-09-11T06:04:44.341Z,16.20
2022-09-11T06:07:12.306Z,16.20
2022-09-11T06:09:41.480Z,16.30
2022-09-11T06:12:11.782Z,16.30
2022-09-11T06:14:39.336Z,16.30
2022-09-11T06:17:07.085Z,16.30
2022-09-11T06:19:35.234Z,16.30
2022-09-11T06:22:02.077Z,16.40
2022-09-11T06:24:35.725Z,16.40
2022-09-11T06:27:02.807Z,16.50
2022-09-11T06:29:32.656Z,16.50
2022-09-11T06:32:00.858Z,16.60
2022-09-11T06:34:31.611Z,16.70
2022-09-11T06:37:02.328Z,16.70
2022-09-11T06:39:30.278Z,16.80
2022-09-11T06:41:58.531Z,16.90
2022-09-11T06:44:29.071Z,16.90
2022-09-11T06:46:59.499Z,17.00
2022-09-11T06:49:46.404Z,17.10
2022-09-11T06:52:39.291Z,17.20
2022-09-11T06:55:14.423Z,17.30
2022-09-11T06:57:46.802Z,17.30
2022-09-11T07:00:37.362Z,17.40
2022-09-11T07:03:04.340Z,17.40
2022-09-11T07:05:31.407Z,17.40
2022-09-11T07:08:00.721Z,17.40
2022-09-11T07:10:33.585Z,17.40
2022-09-11T07:13:01.831Z,17.50
2022-09-11T07:15:29.767Z,17.60
2022-09-11T07:17:58.320Z,17.80
2022-09-11T07:20:29.446Z,17.90
2022-09-11T07:22:56.702Z,18.10
2022-09-11T07:25:24.649Z,18.20
2022-09-11T07:27:54.976Z,18.40
2022-09-11T07:30:24.991Z,18.50
2022-09-11T07:32:55.264Z,18.70
2022-09-11T07:35:22.225Z,18.80
2022-09-11T07:37:52.888Z,19.00
2022-09-11T07:40:25.181Z,19.10
2022-09-11T07:42:51.965Z,19.10
2022-09-11T07:45:22.891Z,19.20
2022-09-11T07:47:50.983Z,19.30
2022-09-11T07:50:20.083Z,19.30
2022-09-11T07:52:46.920Z,19.40
2022-09-11T07:55:14.174Z,19.40
2022-09-11T07:57:41.534Z,19.50
2022-09-11T08:00:16.326Z,19.60
2022-09-11T08:02:56.777Z,19.80
2022-09-11T08:05:31.248Z,19.90
2022-09-11T08:07:58.906Z,20.10
2022-09-11T08:10:28.295Z,20.30
2022-09-11T08:12:59.787Z,20.40
2022-09-11T08:15:31.452Z,20.60
2022-09-11T08:17:59.529Z,20.70
2022-09-11T08:20:54.580Z,20.80
2022-09-11T08:23:24.305Z,21.00
2022-09-11T08:25:51.191Z,21.10
2022-09-11T08:28:18.004Z,21.10
2022-09-11T08:30:44.789Z,21.20
2022-09-11T08:33:12.479Z,21.30
2022-09-11T08:35:39.263Z,21.40
2022-09-11T08:38:05.984Z,21.40
2022-09-11T08:40:37.947Z,21.50
2022-09-11T08:43:06.711Z,21.60
2022-09-11T08:45:35.521Z,21.70
2022-09-11T08:48:06.988Z,21.70
2022-09-11T08:50:36.732Z,21.80
2022-09-11T08:53:06.199Z,21.90
2022-09-11T08:55:40.049Z,22.00
2022-09-11T08:58:18.244Z,22.10
2022-09-11T09:00:58.917Z,22.30
2022-09-11T09:03:35.144Z,22.40
2022-09-11T09:06:10.813Z,22.40
2022-09-11T09:08:49.417Z,22.40
2022-09-11T09:11:31.847Z,22.40
2022-09-11T09:14:17.731Z,22.50
2022-09-11T09:16:49.083Z,22.60
2022-09-11T09:19:22.100Z,22.70
2022-09-11T09:21:55.263Z,22.80
2022-09-11T09:24:23.209Z,22.90
2022-09-11T09:26:54.315Z,23.00
2022-09-11T09:29:25.623Z,23.10
2022-09-11T09:31:55.021Z,23.10
2022-09-11T09:34:22.848Z,23.20
2022-09-11T09:36:57.143Z,23.30
2022-09-11T09:39:25.152Z,23.40
2022-09-11T09:42:02.977Z,23.50
2022-09-11T09:44:46.322Z,23.60
2022-09-11T09:47:14.104Z,23.80
2022-09-11T09:49:43.839Z,24.00
2022-09-11T09:52:19.686Z,24.30
2022-09-11T09:55:06.712Z,24.60
2022-09-11T09:57:34.715Z,24.80
2022-09-11T10:00:21.808Z,24.80
2022-09-11T10:02:50.837Z,24.90
2022-09-11T10:05:20.591Z,25.00
2022-09-11T10:07:51.601Z,25.00
2022-09-11T10:10:23.868Z,25.10
2022-09-11T10:12:51.063Z,25.20
2022-09-11T10:17:30.229Z,25.30
2022-09-11T10:22:31.386Z,25.50
2022-09-11T10:25:20.421Z,25.40
2022-09-11T10:27:53.462Z,25.60
2022-09-11T10:30:42.195Z,25.80
2022-09-11T10:33:29.379Z,26.10
2022-09-11T10:35:58.723Z,26.40
2022-09-11T10:38:57.229Z,26.60
2022-09-11T10:41:34.765Z,26.50
2022-09-11T10:44:11.654Z,26.30
2022-09-11T10:46:40.670Z,26.20
2022-09-11T10:49:11.692Z,26.30
2022-09-11T10:51:45.447Z,26.30
2022-09-11T10:54:44.548Z,26.40
2022-09-11T10:57:45.225Z,26.50
2022-09-11T11:00:25.196Z,26.70
2022-09-11T11:02:56.489Z,26.90
2022-09-11T11:05:31.920Z,27.00
2022-09-11T11:08:12.184Z,27.20
2022-09-11T11:11:03.774Z,27.60
2022-09-11T11:13:46.881Z,27.90
2022-09-11T11:16:47.021Z,28.50
2022-09-11T11:19:40.169Z,28.70
2022-09-11T11:22:10.059Z,28.80
2022-09-11T11:24:48.745Z,28.80
2022-09-11T11:27:59.297Z,28.70
2022-09-11T11:30:33.662Z,28.70
2022-09-11T11:33:32.463Z,28.80
2022-09-11T11:36:37.903Z,28.70
2022-09-11T11:39:19.099Z,28.60
2022-09-11T11:42:12.362Z,28.70
2022-09-11T11:45:20.879Z,28.60
2022-09-11T11:47:48.829Z,28.40
2022-09-11T11:50:33.454Z,28.30
2022-09-11T11:53:12.298Z,28.20
2022-09-11T11:56:08.944Z,28.30
2022-09-11T11:58:49.447Z,28.80
2022-09-11T12:01:24.790Z,29.30
2022-09-11T12:04:17.491Z,29.90
2022-09-11T12:06:44.431Z,30.30
2022-09-11T12:09:15.543Z,30.50
2022-09-11T12:11:46.511Z,30.50
2022-09-11T12:14:29.108Z,30.30
2022-09-11T12:16:57.089Z,30.10
2022-09-11T12:19:25.644Z,30.40
2022-09-11T12:21:52.545Z,31.00
2022-09-11T12:24:50.453Z,31.30
2022-09-11T12:27:53.868Z,31.20
2022-09-11T12:30:27.766Z,31.00
2022-09-11T12:33:00.287Z,30.80
2022-09-11T12:35:47.124Z,30.60
2022-09-11T12:38:38.137Z,30.70
2022-09-11T12:41:25.359Z,30.50
2022-09-11T12:43:54.496Z,30.10
2022-09-11T12:46:21.212Z,29.60
2022-09-11T12:49:21.669Z,29.50
2022-09-11T12:51:59.551Z,29.60
2022-09-11T12:54:39.520Z,29.70
2022-09-11T12:57:15.747Z,29.60
2022-09-11T12:59:52.854Z,29.60
2022-09-11T13:02:35.534Z,29.50
2022-09-11T13:05:05.796Z,29.30
2022-09-11T13:07:45.238Z,29.40
2022-09-11T13:10:33.307Z,29.60
2022-09-11T13:13:06.281Z,29.50
2022-09-11T13:15:42.247Z,29.30
2022-09-11T13:18:26.220Z,29.30
2022-09-11T13:21:02.220Z,29.70
2022-09-11T13:23:29.267Z,30.00
2022-09-11T13:25:58.079Z,30.20
2022-09-11T13:28:27.600Z,30.20
2022-09-11T13:31:03.373Z,30.10
2022-09-11T13:33:32.120Z,29.80
2022-09-11T13:36:02.672Z,29.50
2022-09-11T13:38:34.205Z,29.20
2022-09-11T13:41:15.295Z,28.90
2022-09-11T13:43:46.152Z,28.70
2022-09-11T13:46:16.281Z,28.70
2022-09-11T13:48:44.840Z,29.20
2022-09-11T13:51:14.436Z,30.00
2022-09-11T13:53:43.621Z,31.00
2022-09-11T13:56:21.323Z,31.80
2022-09-11T13:58:53.492Z,32.70
2022-09-11T14:01:20.689Z,33.20
2022-09-11T14:03:49.147Z,33.10
2022-09-11T14:06:19.768Z,32.80
2022-09-11T14:08:57.364Z,32.60
2022-09-11T14:11:31.424Z,32.60
2022-09-11T14:14:09.158Z,32.90
2022-09-11T14:16:39.536Z,33.50
2022-09-11T14:19:11.219Z,33.80
2022-09-11T14:21:43.812Z,34.30
2022-09-11T14:24:43.426Z,34.70
2022-09-11T14:27:35.147Z,35.00
2022-09-11T14:30:40.735Z,34.90
2022-09-11T14:33:24.082Z,35.00
2022-09-11T14:35:53.656Z,35.20
2022-09-11T14:38:23.316Z,35.50
2022-09-11T14:40:55.483Z,35.70
2022-09-11T14:43:32.737Z,35.80
2022-09-11T14:46:03.541Z,35.70
2022-09-11T14:48:33.547Z,35.30
2022-09-11T14:51:08.870Z,34.80
2022-09-11T14:53:43.111Z,33.90
2022-09-11T14:56:10.343Z,33.10
2022-09-11T14:58:38.144Z,32.80
2022-09-11T15:01:05.004Z,32.90
2022-09-11T15:03:32.097Z,33.20
2022-09-11T15:05:59.013Z,33.40
2022-09-11T15:08:26.034Z,33.70
2022-09-11T15:10:53.934Z,33.60
2022-09-11T15:13:21.283Z,33.10
2022-09-11T15:15:48.715Z,32.70
2022-09-11T15:18:16.947Z,32.20
2022-09-11T15:20:43.863Z,31.90
2022-09-11T15:23:10.928Z,31.60
2022-09-11T15:25:37.833Z,31.10
2022-09-11T15:28:06.537Z,30.50
2022-09-11T15:30:34.194Z,30.00
2022-09-11T15:33:01.038Z,29.70
2022-09-11T15:35:32.204Z,29.30
2022-09-11T15:38:00.257Z,28.80
2022-09-11T15:40:28.096Z,28.40
2022-09-11T15:42:56.775Z,28.10
2022-09-11T15:45:24.049Z,28.30
2022-09-11T15:47:51.039Z,29.00
2022-09-11T15:50:24.314Z,29.80
2022-09-11T15:52:51.208Z,30.50
2022-09-11T15:55:18.007Z,31.20
2022-09-11T15:57:45.019Z,31.80
2022-09-11T16:00:14.741Z,32.20
2022-09-11T16:02:42.905Z,31.90
2022-09-11T16:05:10.294Z,31.10
2022-09-11T16:07:37.205Z,30.20
2022-09-11T16:10:05.637Z,29.30
2022-09-11T16:12:33.730Z,28.60
2022-09-11T16:15:00.664Z,28.10
2022-09-11T16:17:31.180Z,27.70
2022-09-11T16:19:58.410Z,27.40
2022-09-11T16:22:26.723Z,27.20
2022-09-11T16:24:54.184Z,26.90
2022-09-11T16:27:21.274Z,26.70
2022-09-11T16:32:38.104Z,26.40
2022-09-11T16:35:07.001Z,26.20
2022-09-11T16:37:35.280Z,26.10
2022-09-11T16:40:04.171Z,26.00
2022-09-11T16:42:31.676Z,25.90
2022-09-11T16:44:58.764Z,25.80
2022-09-11T16:47:26.014Z,25.70
2022-09-11T16:50:12.936Z,25.50
2022-09-11T16:52:39.911Z,25.30
2022-09-11T16:55:08.447Z,25.20
2022-09-11T16:57:35.735Z,25.10
2022-09-11T17:00:05.618Z,25.00
2022-09-11T17:02:32.474Z,24.90
2022-09-11T17:04:59.360Z,24.70
2022-09-11T17:07:26.271Z,24.60
2022-09-11T17:09:53.474Z,24.50
2022-09-11T17:12:22.256Z,24.40
2022-09-11T17:14:50.070Z,24.30
2022-09-11T17:17:16.887Z,24.10
2022-09-11T17:19:44.768Z,24.00
2022-09-11T17:22:11.659Z,23.90
2022-09-11T17:24:39.607Z,23.80
2022-09-11T17:27:06.494Z,23.70
2022-09-11T17:29:33.375Z,23.70
2022-09-11T17:34:47.781Z,23.50
2022-09-11T17:37:15.786Z,23.40
2022-09-11T17:39:43.316Z,23.30
2022-09-11T17:42:13.152Z,23.20
2022-09-11T17:44:41.355Z,23.20
2022-09-11T17:47:08.880Z,23.10
2022-09-11T17:49:36.068Z,23.00
2022-09-11T17:52:03.087Z,22.90
2022-09-11T17:54:30.038Z,22.80
2022-09-11T17:56:58.613Z,22.70
2022-09-11T17:59:25.696Z,22.70
2022-09-11T18:01:53.371Z,22.60
2022-09-11T18:04:20.604Z,22.50
2022-09-11T18:06:47.545Z,22.40
2022-09-11T18:09:17.866Z,22.30
2022-09-11T18:11:46.832Z,22.20
2022-09-11T18:14:14.798Z,22.10
2022-09-11T18:16:47.140Z,22.00
2022-09-11T18:19:17.925Z,21.90
2022-09-11T18:21:49.761Z,21.80
2022-09-11T18:24:21.381Z,21.70
2022-09-11T18:26:51.216Z,21.70
2022-09-11T18:29:20.851Z,21.60
2022-09-11T18:31:51.683Z,21.50
2022-09-11T18:34:28.305Z,21.40
2022-09-11T18:36:55.183Z,21.30
2022-09-11T18:39:22.437Z,21.30
2022-09-11T18:41:50.446Z,21.20
2022-09-11T18:44:20.325Z,21.10
2022-09-11T18:46:48.029Z,21.00
2022-09-11T18:49:16.540Z,20.90
2022-09-11T18:51:43.799Z,20.90
2022-09-11T18:54:18.291Z,20.80
2022-09-11T18:56:45.704Z,20.70
2022-09-11T18:59:13.741Z,20.60
2022-09-11T19:01:41.277Z,20.60
2022-09-11T19:04:12.918Z,20.50
2022-09-11T19:06:40.367Z,20.40
2022-09-11T19:09:12.324Z,20.40
2022-09-11T19:11:40.056Z,20.30
2022-09-11T19:14:09.713Z,20.30
2022-09-11T19:16:38.310Z,20.20
2022-09-11T19:19:23.973Z,20.20
2022-09-11T19:21:51.548Z,20.10
2022-09-11T19:24:19.415Z,20.10
2022-09-11T19:26:46.542Z,20.00
2022-09-11T19:29:51.762Z,20.00
2022-09-11T19:32:19.340Z,19.90
2022-09-11T19:34:47.593Z,19.90
2022-09-11T19:37:15.205Z,19.80
2022-09-11T19:40:20.836Z,19.80
2022-09-11T19:42:47.923Z,19.70
2022-09-11T19:45:15.013Z,19.60
2022-09-11T19:47:41.853Z,19.60
2022-09-11T19:50:33.823Z,19.50
2022-09-11T19:53:00.659Z,19.50
2022-09-11T19:55:27.936Z,19.50
2022-09-11T19:57:54.754Z,19.40
2022-09-11T20:00:23.083Z,19.40
2022-09-11T20:02:49.933Z,19.30
2022-09-11T20:05:16.920Z,19.30
2022-09-11T20:07:43.774Z,19.20
2022-09-11T20:10:10.761Z,19.20
2022-09-11T20:12:37.573Z,19.20
2022-09-11T20:15:04.935Z,19.10
2022-09-11T20:17:31.951Z,19.10
2022-09-11T20:20:00.430Z,19.10
2022-09-11T20:22:28.804Z,19.00
2022-09-11T20:24:56.068Z,19.00
2022-09-11T20:27:22.884Z,18.90
2022-09-11T20:29:54.958Z,18.90
2022-09-11T20:32:22.356Z,18.90
2022-09-11T20:34:49.177Z,18.80
2022-09-11T20:37:16.038Z,18.80
2022-09-11T20:40:07.438Z,18.70
2022-09-11T20:42:34.400Z,18.60
2022-09-11T20:45:01.280Z,18.60
2022-09-11T20:47:28.484Z,18.50
2022-09-11T20:49:56.500Z,18.50
2022-09-11T20:52:23.344Z,18.40
2022-09-11T20:54:50.508Z,18.30
2022-09-11T20:57:17.377Z,18.20
2022-09-11T20:59:44.609Z,18.20
2022-09-11T21:02:12.688Z,18.20
2022-09-11T21:04:39.539Z,18.10
2022-09-11T21:07:06.380Z,18.10
2022-09-11T21:09:35.448Z,18.10
2022-09-11T21:12:02.546Z,18.00
2022-09-11T21:14:29.418Z,18.00
2022-09-11T21:16:56.285Z,18.00
2022-09-11T21:19:26.435Z,17.90
2022-09-11T21:21:53.356Z,17.90
2022-09-11T21:24:20.267Z,17.90
2022-09-11T21:26:47.286Z,17.80
2022-09-11T21:29:33.200Z,17.70
2022-09-11T21:32:00.185Z,17.70
2022-09-11T21:34:27.045Z,17.70
2022-09-11T21:36:53.854Z,17.60
2022-09-11T21:39:58.791Z,17.60
2022-09-11T21:42:25.939Z,17.50
2022-09-11T21:44:53.464Z,17.50
2022-09-11T21:47:20.367Z,17.40
2022-09-11T21:49:47.483Z,17.40
2022-09-11T21:52:14.363Z,17.40
2022-09-11T21:54:41.227Z,17.40
2022-09-11T21:57:08.163Z,17.30
2022-09-11T21:59:35.189Z,17.30
2022-09-11T22:02:02.036Z,17.30
2022-09-11T22:04:28.930Z,17.20
2022-09-11T22:06:55.828Z,17.20
2022-09-11T22:09:22.860Z,17.10
2022-09-11T22:11:50.054Z,17.10
2022-09-11T22:14:20.194Z,17.10
2022-09-11T22:16:47.469Z,17.00
2022-09-11T22:19:16.640Z,17.00
2022-09-11T22:21:44.184Z,17.00
2022-09-11T22:24:11.128Z,16.90
2022-09-11T22:26:37.960Z,16.80
2022-09-11T22:29:25.819Z,16.80
2022-09-11T22:31:52.875Z,16.70
2022-09-11T22:34:19.936Z,16.70
2022-09-11T22:36:46.760Z,16.70
2022-09-11T22:39:13.809Z,16.60
2022-09-11T22:41:40.644Z,16.60
2022-09-11T22:44:09.540Z,16.60
2022-09-11T22:46:36.370Z,16.60
2022-09-11T22:49:05.856Z,16.60
2022-09-11T22:51:33.265Z,16.60
2022-09-11T22:54:00.163Z,16.60
2022-09-11T22:56:26.985Z,16.60
2022-09-11T22:58:54.987Z,16.60
2022-09-11T23:01:22.906Z,16.60
2022-09-11T23:03:53.354Z,16.60
2022-09-11T23:06:39.074Z,16.60
2022-09-11T23:09:47.072Z,16.60
2022-09-11T23:12:14.087Z,16.60
2022-09-11T23:14:40.927Z,16.70
2022-09-11T23:17:07.912Z,16.70
2022-09-11T23:19:35.441Z,16.60
2022-09-11T23:22:02.335Z,16.60
2022-09-11T23:24:29.252Z,16.60
2022-09-11T23:26:56.069Z,16.60
2022-09-11T23:29:23.189Z,16.50
2022-09-11T23:31:50.131Z,16.50
2022-09-11T23:34:17.397Z,16.50
2022-09-11T23:36:44.547Z,16.50
2022-09-11T23:39:14.019Z,16.50
2022-09-11T23:41:40.956Z,16.50
2022-09-11T23:44:07.797Z,16.40
2022-09-11T23:46:34.624Z,16.40
2022-09-11T23:49:07.343Z,16.30
2022-09-11T23:51:34.230Z,16.30
2022-09-11T23:54:01.079Z,16.30
2022-09-11T23:56:28.166Z,16.30
2022-09-11T23:58:55.158Z,16.30
